createdAt,value
2018-05-26T00:00:20.989Z,23.10
2018-05-26T00:01:20.980Z,22.80
2018-05-26T00:02:20.968Z,22.10
2018-05-26T00:03:20.957Z,22.50
2018-05-26T00:04:20.946Z,22.40
2018-05-26T00:05:20.944Z,23.60
2018-05-26T00:06:20.939Z,22.90
2018-05-26T00:07:20.915Z,23.20
2018-05-26T00:08:20.906Z,23.40
2018-05-26T00:09:20.889Z,23.80
2018-05-26T00:10:20.886Z,22.30
2018-05-26T00:11:20.982Z,22.20
2018-05-26T00:12:20.873Z,23.30
2018-05-26T00:13:20.858Z,22.00
2018-05-26T00:14:20.844Z,22.00
2018-05-26T00:15:20.832Z,22.50
2018-05-26T00:16:20.826Z,22.90
2018-05-26T00:17:20.811Z,24.20
2018-05-26T00:18:20.800Z,23.20
2018-05-26T00:19:20.879Z,22.90
2018-05-26T00:20:20.782Z,22.60
2018-05-26T00:21:20.848Z,23.10
2018-05-26T00:22:20.758Z,23.10
2018-05-26T00:23:20.848Z,23.20
2018-05-26T00:24:20.743Z,22.50
2018-05-26T00:25:20.791Z,23.20
2018-05-26T00:26:20.722Z,23.60
2018-05-26T00:27:20.758Z,24.00
2018-05-26T00:28:20.700Z,23.60
2018-05-26T00:29:20.747Z,24.00
2018-05-26T00:30:20.681Z,24.70
2018-05-26T00:31:20.672Z,23.50
2018-05-26T00:32:20.652Z,24.00
2018-05-26T00:33:20.697Z,22.30
2018-05-26T00:34:20.636Z,23.90
2018-05-26T00:35:20.627Z,23.60
2018-05-26T00:36:20.621Z,24.00
2018-05-26T00:37:20.598Z,23.60
2018-05-26T00:38:20.595Z,23.80
2018-05-26T00:39:20.590Z,23.20
2018-05-26T00:40:20.582Z,24.20
2018-05-26T00:41:20.566Z,24.20
2018-05-26T00:42:20.552Z,24.00
2018-05-26T00:43:20.544Z,24.20
2018-05-26T00:44:20.534Z,25.00
2018-05-26T00:45:20.523Z,24.60
2018-05-26T00:46:20.504Z,24.80
2018-05-26T00:47:20.500Z,24.30
2018-05-26T00:48:20.489Z,24.20
2018-05-26T00:49:20.482Z,23.60
2018-05-26T00:50:20.469Z,24.80
2018-05-26T00:51:20.463Z,26.10
2018-05-26T00:52:20.456Z,25.30
2018-05-26T00:53:20.440Z,24.50
2018-05-26T00:54:20.427Z,24.40
2018-05-26T00:55:20.418Z,24.30
2018-05-26T00:56:20.408Z,25.70
2018-05-26T00:57:20.405Z,25.00
2018-05-26T00:58:20.386Z,25.90
2018-05-26T00:59:20.373Z,25.20
2018-05-26T01:00:20.358Z,26.20
2018-05-26T01:01:20.347Z,26.20
2018-05-26T01:02:20.339Z,26.30
2018-05-26T01:03:20.329Z,25.40
2018-05-26T01:04:20.324Z,25.50
2018-05-26T01:05:20.314Z,26.10
2018-05-26T01:06:20.384Z,26.30
2018-05-26T01:07:20.287Z,25.30
2018-05-26T01:08:20.373Z,25.90
2018-05-26T01:09:20.268Z,25.60
2018-05-26T01:10:20.256Z,25.40
2018-05-26T01:11:20.250Z,26.70
2018-05-26T01:12:20.237Z,25.50
2018-05-26T01:13:20.228Z,25.70
2018-05-26T01:14:20.215Z,26.00
2018-05-26T01:15:20.208Z,26.60
2018-05-26T01:16:20.199Z,26.60
2018-05-26T01:17:20.183Z,26.30
2018-05-26T01:18:20.168Z,26.60
2018-05-26T01:19:20.154Z,26.90
2018-05-26T01:20:20.148Z,27.10
2018-05-26T01:21:20.138Z,26.90
2018-05-26T01:22:20.125Z,28.10
2018-05-26T01:23:20.113Z,26.90
2018-05-26T01:24:20.113Z,27.70
2018-05-26T01:26:20.088Z,26.70
2018-05-26T01:27:20.077Z,26.80
2018-05-26T01:28:20.068Z,26.30
2018-05-26T01:29:20.058Z,28.30
2018-05-26T01:30:20.055Z,27.00
2018-05-26T01:31:20.033Z,27.40
2018-05-26T01:32:20.024Z,27.30
2018-05-26T01:33:20.018Z,28.40
2018-05-26T01:34:19.999Z,27.90
2018-05-26T01:35:19.989Z,27.40
2018-05-26T01:36:19.987Z,28.30
2018-05-26T01:37:19.965Z,28.50
2018-05-26T01:38:19.962Z,28.60
2018-05-26T01:39:19.948Z,26.90
2018-05-26T01:40:19.935Z,27.80
2018-05-26T01:41:19.919Z,27.80
2018-05-26T01:42:19.925Z,28.50
2018-05-26T01:43:19.908Z,27.70
2018-05-26T01:44:19.902Z,29.20
2018-05-26T01:45:19.876Z,28.90
2018-05-26T01:46:19.870Z,28.30
2018-05-26T01:48:19.890Z,28.40
2018-05-26T01:49:19.834Z,28.90
2018-05-26T01:50:19.830Z,28.50
2018-05-26T01:51:19.819Z,28.80
2018-05-26T01:52:19.812Z,28.50
2018-05-26T01:53:19.794Z,27.70
2018-05-26T01:54:19.784Z,29.20
2018-05-26T01:55:19.783Z,29.20
2018-05-26T01:56:19.762Z,29.40
2018-05-26T01:57:19.748Z,27.90
2018-05-26T01:58:19.739Z,27.20
2018-05-26T01:59:19.732Z,27.70
2018-05-26T02:00:19.724Z,27.90
2018-05-26T02:01:19.708Z,27.70
2018-05-26T02:02:19.691Z,26.80
2018-05-26T02:03:19.688Z,27.80
2018-05-26T02:04:19.682Z,26.70
2018-05-26T02:05:19.659Z,26.00
2018-05-26T02:06:19.656Z,27.20
2018-05-26T02:07:19.642Z,28.00
2018-05-26T02:08:19.629Z,26.80
2018-05-26T02:09:19.618Z,25.90
2018-05-26T02:10:19.608Z,26.60
2018-05-26T02:11:19.603Z,25.60
2018-05-26T02:12:19.592Z,25.70
2018-05-26T02:13:19.588Z,25.40
2018-05-26T02:14:19.567Z,26.10
2018-05-26T02:15:19.558Z,27.40
2018-05-26T02:16:19.544Z,27.00
2018-05-26T02:17:19.546Z,26.50
2018-05-26T02:18:19.525Z,26.10
2018-05-26T02:19:19.513Z,26.80
2018-05-26T02:20:19.505Z,25.60
2018-05-26T02:21:19.541Z,25.40
2018-05-26T02:23:19.523Z,26.50
2018-05-26T02:24:19.452Z,25.30
2018-05-26T02:25:19.450Z,26.40
2018-05-26T02:26:19.434Z,24.80
2018-05-26T02:27:19.425Z,25.60
2018-05-26T02:28:19.414Z,26.20
2018-05-26T02:29:19.397Z,24.90
2018-05-26T02:30:19.389Z,25.40
2018-05-26T02:31:19.383Z,26.10
2018-05-26T02:32:19.371Z,26.00
2018-05-26T02:33:19.363Z,26.20
2018-05-26T02:34:19.344Z,25.10
2018-05-26T02:35:19.344Z,24.60
2018-05-26T02:36:19.331Z,24.60
2018-05-26T02:37:19.314Z,24.90
2018-05-26T02:39:19.289Z,24.60
2018-05-26T02:40:19.281Z,25.30
2018-05-26T02:41:19.273Z,25.40
2018-05-26T02:42:19.256Z,24.40
2018-05-26T02:43:19.253Z,25.90
2018-05-26T02:44:19.243Z,24.10
2018-05-26T02:45:19.224Z,25.20
2018-05-26T02:46:19.215Z,24.90
2018-05-26T02:47:19.208Z,24.60
2018-05-26T02:48:19.195Z,24.30
2018-05-26T02:49:19.182Z,25.00
2018-05-26T02:50:19.171Z,25.00
2018-05-26T02:51:19.162Z,25.60
2018-05-26T02:52:19.145Z,25.40
2018-05-26T02:53:19.131Z,25.60
2018-05-26T02:54:19.130Z,24.60
2018-05-26T02:55:19.117Z,24.90
2018-05-26T02:56:19.104Z,24.30
2018-05-26T02:57:19.086Z,24.90
2018-05-26T02:58:19.079Z,24.30
2018-05-26T02:59:19.061Z,24.10
2018-05-26T03:00:19.066Z,25.00
2018-05-26T03:01:19.040Z,24.20
2018-05-26T03:02:19.048Z,25.40
2018-05-26T03:03:19.020Z,23.90
2018-05-26T03:04:19.020Z,24.40
2018-05-26T03:05:18.999Z,24.10
2018-05-26T03:06:18.995Z,24.40
2018-05-26T03:07:18.988Z,23.80
2018-05-26T03:08:18.973Z,23.70
2018-05-26T03:09:18.962Z,23.70
2018-05-26T03:10:18.947Z,25.00
2018-05-26T03:11:18.935Z,25.00
2018-05-26T03:12:19.024Z,23.40
2018-05-26T03:13:18.921Z,24.40
2018-05-26T03:17:18.874Z,24.20
2018-05-26T03:18:18.854Z,23.80
2018-05-26T03:20:18.828Z,23.60
2018-05-26T03:21:18.827Z,24.10
2018-05-26T03:22:18.809Z,23.90
2018-05-26T03:23:18.802Z,22.90
2018-05-26T03:24:18.792Z,23.20
2018-05-26T03:25:18.785Z,23.30
2018-05-26T03:26:18.770Z,23.10
2018-05-26T03:27:18.758Z,22.40
2018-05-26T03:28:18.747Z,23.00
2018-05-26T03:29:18.732Z,23.40
2018-05-26T03:30:18.723Z,22.80
2018-05-26T03:31:18.712Z,22.60
2018-05-26T03:32:18.698Z,23.50
2018-05-26T03:33:18.692Z,21.00
2018-05-26T03:34:18.683Z,21.00
2018-05-26T03:35:18.667Z,22.80
2018-05-26T03:36:18.712Z,22.30
2018-05-26T03:37:18.640Z,21.30
2018-05-26T03:38:18.631Z,22.70
2018-05-26T03:39:18.618Z,22.90
2018-05-26T03:40:18.606Z,22.80
2018-05-26T03:41:18.596Z,22.70
2018-05-26T03:42:18.583Z,22.30
2018-05-26T03:43:18.577Z,23.60
2018-05-26T03:44:18.570Z,22.10
2018-05-26T03:45:18.548Z,22.80
2018-05-26T03:47:18.532Z,22.60
2018-05-26T03:48:18.519Z,21.70
2018-05-26T03:49:18.505Z,22.10
2018-05-26T03:50:18.500Z,21.00
2018-05-26T03:51:18.490Z,21.10
2018-05-26T03:52:18.471Z,21.70
2018-05-26T03:53:18.461Z,21.00
2018-05-26T03:54:18.450Z,21.40
2018-05-26T03:55:18.442Z,21.00
2018-05-26T03:56:18.426Z,21.20
2018-05-26T03:57:18.420Z,21.60
2018-05-26T03:58:18.401Z,22.20
2018-05-26T03:59:18.397Z,21.90
2018-05-26T04:00:18.378Z,21.40
2018-05-26T04:01:18.371Z,21.10
2018-05-26T04:02:18.366Z,21.70
2018-05-26T04:03:18.355Z,20.40
2018-05-26T04:04:18.340Z,21.30
2018-05-26T04:05:18.331Z,21.00
2018-05-26T04:06:18.325Z,20.80
2018-05-26T04:07:18.308Z,21.90
2018-05-26T04:08:18.294Z,20.90
2018-05-26T04:09:18.284Z,21.10
2018-05-26T04:10:18.272Z,21.50
2018-05-26T04:11:18.296Z,21.50
2018-05-26T04:12:18.250Z,20.40
2018-05-26T04:13:18.240Z,21.70
2018-05-26T04:14:18.227Z,20.80
2018-05-26T04:15:18.220Z,21.40
2018-05-26T04:16:18.208Z,21.10
2018-05-26T04:17:18.191Z,21.90
2018-05-26T04:18:18.181Z,21.60
2018-05-26T04:19:18.166Z,20.40
2018-05-26T04:20:18.168Z,22.00
2018-05-26T04:21:18.151Z,21.20
2018-05-26T04:22:18.137Z,21.80
2018-05-26T04:23:18.127Z,21.30
2018-05-26T04:24:18.112Z,21.70
2018-05-26T04:25:18.104Z,21.30
2018-05-26T04:26:18.096Z,20.20
2018-05-26T04:27:18.184Z,22.00
2018-05-26T04:28:18.103Z,20.70
2018-05-26T04:29:18.071Z,21.40
2018-05-26T04:30:18.047Z,20.60
2018-05-26T04:31:18.038Z,21.10
2018-05-26T04:32:18.032Z,21.40
2018-05-26T04:33:18.012Z,20.90
2018-05-26T04:34:18.011Z,20.50
2018-05-26T04:35:18.024Z,21.70
2018-05-26T04:36:17.983Z,21.10
2018-05-26T04:37:17.976Z,21.50
2018-05-26T04:38:17.960Z,21.90
2018-05-26T04:39:17.948Z,21.60
2018-05-26T04:40:17.938Z,21.20
2018-05-26T04:41:17.929Z,21.00
2018-05-26T04:42:17.920Z,21.80
2018-05-26T04:43:17.907Z,22.20
2018-05-26T04:44:17.894Z,21.30
2018-05-26T04:45:17.883Z,21.70
2018-05-26T04:46:17.866Z,20.70
2018-05-26T04:47:17.866Z,21.00
2018-05-26T04:48:17.847Z,20.70
2018-05-26T04:49:17.837Z,21.30
2018-05-26T04:50:17.834Z,21.10
2018-05-26T04:51:17.819Z,20.70
2018-05-26T04:52:17.806Z,21.00
2018-05-26T04:53:17.796Z,20.60
2018-05-26T04:54:17.787Z,21.20
2018-05-26T04:55:18.381Z,20.90
2018-05-26T04:56:17.764Z,20.50
2018-05-26T04:57:17.751Z,21.00
2018-05-26T04:58:17.741Z,21.20
2018-05-26T04:59:17.725Z,22.40
2018-05-26T05:00:17.723Z,20.30
2018-05-26T05:01:17.706Z,21.30
2018-05-26T05:02:17.691Z,20.70
2018-05-26T05:03:17.694Z,20.90
2018-05-26T05:04:17.678Z,20.60
2018-05-26T05:05:17.665Z,21.40
2018-05-26T05:06:17.800Z,20.60
2018-05-26T05:07:17.639Z,20.40
2018-05-26T05:08:17.805Z,20.20
2018-05-26T05:09:17.617Z,21.00
2018-05-26T05:10:17.695Z,21.10
2018-05-26T05:11:17.601Z,21.70
2018-05-26T05:12:17.636Z,20.60
2018-05-26T05:13:17.582Z,20.20
2018-05-26T05:14:17.671Z,20.20
2018-05-26T05:15:17.559Z,19.80
2018-05-26T05:16:17.649Z,20.30
2018-05-26T05:17:17.543Z,20.00
2018-05-26T05:18:17.617Z,20.80
2018-05-26T05:20:17.546Z,21.20
2018-05-26T05:21:17.494Z,20.90
2018-05-26T05:22:17.477Z,20.40
2018-05-26T05:23:17.472Z,20.50
2018-05-26T05:24:17.457Z,21.50
2018-05-26T05:25:17.451Z,21.00
2018-05-26T05:26:17.442Z,20.60
2018-05-26T05:27:17.428Z,21.50
2018-05-26T05:28:17.419Z,20.50
2018-05-26T05:29:17.406Z,21.40
2018-05-26T05:30:17.390Z,20.70
2018-05-26T05:31:17.388Z,20.70
2018-05-26T05:32:17.378Z,21.40
2018-05-26T05:33:17.362Z,20.80
2018-05-26T05:34:17.351Z,20.80
2018-05-26T05:35:17.340Z,20.10
2018-05-26T05:36:17.327Z,21.00
2018-05-26T05:37:17.317Z,20.50
2018-05-26T05:38:17.312Z,22.00
2018-05-26T05:39:17.301Z,21.00
2018-05-26T05:40:17.292Z,21.50
2018-05-26T05:41:17.279Z,21.90
2018-05-26T05:42:17.266Z,21.60
2018-05-26T05:43:17.257Z,21.70
2018-05-26T05:44:17.250Z,22.20
2018-05-26T05:45:17.238Z,22.00
2018-05-26T05:46:17.228Z,21.70
2018-05-26T05:47:17.219Z,21.70
2018-05-26T05:48:17.206Z,21.20
2018-05-26T05:49:17.201Z,22.00
2018-05-26T05:50:17.183Z,23.30
2018-05-26T05:51:17.177Z,23.20
2018-05-26T05:52:17.168Z,22.60
2018-05-26T05:53:17.158Z,22.90
2018-05-26T05:54:17.147Z,22.70
2018-05-26T05:55:17.141Z,22.30
2018-05-26T05:56:17.153Z,22.80
2018-05-26T05:57:17.111Z,22.30
2018-05-26T05:58:17.107Z,22.00
2018-05-26T05:59:17.101Z,23.30
2018-05-26T06:00:17.092Z,22.50
2018-05-26T06:01:17.074Z,23.50
2018-05-26T06:02:17.068Z,23.50
2018-05-26T06:03:17.069Z,23.70
2018-05-26T06:04:17.041Z,23.00
2018-05-26T06:05:17.035Z,24.00
2018-05-26T06:06:17.028Z,23.50
2018-05-26T06:07:17.019Z,23.10
2018-05-26T06:08:17.009Z,24.00
2018-05-26T06:09:17.001Z,24.20
2018-05-26T06:10:16.980Z,23.20
2018-05-26T06:12:16.962Z,24.00
2018-05-26T06:13:16.951Z,24.50
2018-05-26T06:14:16.949Z,25.00
2018-05-26T06:15:16.932Z,24.10
2018-05-26T06:16:16.922Z,24.00
2018-05-26T06:17:16.918Z,25.00
2018-05-26T06:18:16.902Z,24.30
2018-05-26T06:19:16.893Z,24.80
2018-05-26T06:20:16.885Z,24.30
2018-05-26T06:21:16.883Z,24.40
2018-05-26T06:22:16.873Z,24.30
2018-05-26T06:23:16.863Z,24.00
2018-05-26T06:24:16.847Z,25.20
2018-05-26T06:25:16.840Z,24.80
2018-05-26T06:26:16.829Z,25.50
2018-05-26T06:27:16.824Z,25.00
2018-05-26T06:28:16.805Z,25.00
2018-05-26T06:29:16.799Z,25.90
2018-05-26T06:30:16.794Z,25.90
2018-05-26T06:31:16.783Z,24.40
2018-05-26T06:32:16.771Z,24.90
2018-05-26T06:33:16.755Z,26.90
2018-05-26T06:34:16.750Z,25.30
2018-05-26T06:35:16.745Z,25.80
2018-05-26T06:36:16.739Z,25.10
2018-05-26T06:37:16.717Z,25.50
2018-05-26T06:38:16.709Z,25.60
2018-05-26T06:39:16.697Z,25.10
2018-05-26T06:40:16.695Z,25.60
2018-05-26T06:41:16.687Z,26.80
2018-05-26T06:42:16.680Z,26.90
2018-05-26T06:43:16.672Z,26.50
2018-05-26T06:44:16.664Z,26.50
2018-05-26T06:45:16.717Z,25.90
2018-05-26T06:46:16.637Z,26.70
2018-05-26T06:47:16.626Z,26.00
2018-05-26T06:48:16.612Z,24.40
2018-05-26T06:49:16.610Z,26.00
2018-05-26T06:50:16.611Z,25.40
2018-05-26T06:51:16.648Z,25.40
2018-05-26T06:52:16.580Z,24.90
2018-05-26T06:53:16.571Z,25.50
2018-05-26T06:54:16.711Z,26.00
2018-05-26T06:55:16.549Z,26.00
2018-05-26T06:56:16.545Z,25.90
2018-05-26T06:57:16.539Z,25.60
2018-05-26T06:58:16.682Z,26.20
2018-05-26T06:59:16.515Z,26.70
2018-05-26T07:00:16.609Z,25.80
2018-05-26T07:01:16.502Z,25.10
2018-05-26T07:02:16.539Z,26.10
2018-05-26T07:03:16.477Z,26.10
2018-05-26T07:04:16.502Z,24.10
2018-05-26T07:05:16.470Z,26.40
2018-05-26T07:06:16.503Z,24.50
2018-05-26T07:07:16.442Z,24.60
2018-05-26T07:08:16.487Z,25.40
2018-05-26T07:09:16.429Z,25.90
2018-05-26T07:10:16.423Z,24.70
2018-05-26T07:11:16.410Z,25.30
2018-05-26T07:12:16.398Z,25.00
2018-05-26T07:13:16.393Z,24.70
2018-05-26T07:14:16.378Z,23.80
2018-05-26T07:15:16.377Z,24.60
2018-05-26T07:16:16.365Z,23.90
2018-05-26T07:17:16.362Z,24.20
2018-05-26T07:18:16.345Z,25.10
2018-05-26T07:19:16.337Z,24.70
2018-05-26T07:20:16.330Z,24.20
2018-05-26T07:21:16.321Z,23.90
2018-05-26T07:22:16.312Z,24.60
2018-05-26T07:23:16.308Z,23.80
2018-05-26T07:24:16.304Z,24.80
2018-05-26T07:25:16.284Z,25.50
2018-05-26T07:26:16.278Z,25.20
2018-05-26T07:27:16.268Z,24.70
2018-05-26T07:28:16.262Z,24.50
2018-05-26T07:29:16.258Z,24.10
2018-05-26T07:30:16.241Z,25.00
2018-05-26T07:31:16.242Z,25.00
2018-05-26T07:32:16.233Z,24.30
2018-05-26T07:33:16.219Z,24.30
2018-05-26T07:34:16.213Z,25.30
2018-05-26T07:35:16.198Z,25.10
2018-05-26T07:36:16.208Z,23.20
2018-05-26T07:37:16.318Z,24.70
2018-05-26T07:38:16.175Z,23.30
2018-05-26T07:39:16.171Z,24.20
2018-05-26T07:40:16.164Z,23.20
2018-05-26T07:41:16.156Z,23.50
2018-05-26T07:42:16.140Z,24.80
2018-05-26T07:43:16.191Z,22.90
2018-05-26T07:44:16.133Z,24.80
2018-05-26T07:45:16.124Z,23.10
2018-05-26T07:46:16.107Z,24.30
2018-05-26T07:47:16.109Z,23.10
2018-05-26T07:48:16.103Z,22.30
2018-05-26T07:51:16.076Z,23.90
2018-05-26T07:52:16.074Z,23.60
2018-05-26T07:53:16.077Z,22.50
2018-05-26T07:54:16.049Z,22.60
2018-05-26T07:55:16.051Z,21.80
2018-05-26T07:56:16.037Z,22.10
2018-05-26T07:57:16.038Z,23.20
2018-05-26T07:58:16.017Z,22.50
2018-05-26T07:59:16.012Z,24.20
2018-05-26T08:00:16.015Z,21.90
2018-05-26T08:01:15.995Z,23.30
2018-05-26T08:02:15.989Z,21.10
2018-05-26T08:03:15.979Z,20.50
2018-05-26T08:04:15.973Z,20.40
2018-05-26T08:05:15.966Z,19.30
2018-05-26T08:06:15.957Z,18.50
2018-05-26T08:07:15.948Z,18.80
2018-05-26T08:08:15.947Z,18.10
2018-05-26T08:09:15.938Z,17.80
2018-05-26T08:10:15.928Z,18.50
2018-05-26T08:11:15.922Z,18.40
2018-05-26T08:12:15.919Z,17.90
2018-05-26T08:13:15.909Z,16.60
2018-05-26T08:14:15.896Z,16.40
2018-05-26T08:15:15.893Z,17.00
2018-05-26T08:16:15.889Z,16.70
2018-05-26T08:17:15.909Z,14.70
2018-05-26T08:18:15.871Z,16.60
2018-05-26T08:19:15.868Z,15.60
2018-05-26T08:20:15.858Z,15.30
2018-05-26T08:21:15.848Z,15.30
2018-05-26T08:22:15.851Z,15.70
2018-05-26T08:23:15.843Z,15.70
2018-05-26T08:24:15.832Z,15.10
2018-05-26T08:25:15.820Z,14.80
2018-05-26T08:26:15.817Z,16.10
2018-05-26T08:27:15.889Z,14.80
2018-05-26T08:28:15.804Z,14.10
2018-05-26T08:29:15.804Z,14.80
2018-05-26T08:30:15.788Z,14.90
2018-05-26T08:31:15.785Z,13.80
2018-05-26T08:32:15.788Z,13.40
2018-05-26T08:33:15.797Z,17.00
2018-05-26T08:34:15.768Z,17.00
2018-05-26T08:35:15.778Z,16.00
2018-05-26T08:36:15.765Z,19.50
2018-05-26T08:37:15.762Z,14.00
2018-05-26T08:38:15.755Z,13.30
2018-05-26T08:39:15.760Z,14.10
2018-05-26T08:40:15.753Z,13.80
2018-05-26T08:41:15.753Z,13.50
2018-05-26T08:42:15.740Z,12.20
2018-05-26T08:43:15.740Z,12.00
2018-05-26T08:44:15.743Z,13.20
2018-05-26T08:45:15.741Z,12.40
2018-05-26T08:46:15.744Z,12.50
2018-05-26T08:47:15.741Z,12.00
2018-05-26T08:48:15.740Z,12.90
2018-05-26T08:49:15.729Z,13.60
2018-05-26T08:50:15.733Z,13.70
2018-05-26T08:51:15.735Z,13.40
2018-05-26T08:52:15.730Z,12.10
2018-05-26T08:53:15.729Z,14.00
2018-05-26T08:54:15.728Z,14.60
2018-05-26T08:55:15.740Z,13.80
2018-05-26T08:56:15.735Z,13.80
2018-05-26T08:57:15.735Z,13.30
2018-05-26T08:58:15.740Z,13.30
2018-05-26T08:59:15.737Z,12.00
2018-05-26T09:00:15.737Z,11.80
2018-05-26T09:01:15.740Z,11.80
2018-05-26T09:02:15.782Z,12.60
2018-05-26T09:03:15.743Z,11.40
2018-05-26T09:04:15.754Z,12.90
2018-05-26T09:05:15.744Z,11.30
2018-05-26T09:06:15.748Z,13.30
2018-05-26T09:07:15.759Z,12.50
2018-05-26T09:08:15.750Z,14.90
2018-05-26T09:09:15.777Z,15.20
2018-05-26T09:10:15.763Z,12.60
2018-05-26T09:11:15.792Z,12.90
2018-05-26T09:13:15.765Z,14.00
2018-05-26T09:14:15.769Z,12.40
2018-05-26T09:15:15.776Z,12.10
2018-05-26T09:16:15.779Z,11.40
2018-05-26T09:17:15.786Z,10.90
2018-05-26T09:18:15.788Z,11.30
2018-05-26T09:19:15.792Z,11.00
2018-05-26T09:20:15.789Z,10.80
2018-05-26T09:21:15.789Z,11.60
2018-05-26T09:22:15.795Z,11.40
2018-05-26T09:23:15.802Z,11.00
2018-05-26T09:24:15.800Z,10.60
2018-05-26T09:25:15.858Z,11.00
2018-05-26T09:26:15.798Z,10.70
2018-05-26T09:27:15.809Z,11.70
2018-05-26T09:28:15.815Z,11.80
2018-05-26T09:29:15.817Z,11.40
2018-05-26T09:30:15.837Z,10.20
2018-05-26T09:31:15.831Z,9.70
2018-05-26T09:32:15.817Z,9.90
2018-05-26T09:33:15.822Z,10.40
2018-05-26T09:34:15.832Z,10.20
2018-05-26T09:35:15.831Z,9.60
2018-05-26T09:36:15.830Z,10.20
2018-05-26T09:37:15.836Z,10.00
2018-05-26T09:38:15.833Z,13.90
2018-05-26T09:39:15.846Z,10.10
2018-05-26T09:40:15.840Z,8.50
2018-05-26T09:41:15.834Z,9.20
2018-05-26T09:42:15.837Z,10.70
2018-05-26T09:43:15.846Z,9.60
2018-05-26T09:44:15.840Z,10.20
2018-05-26T09:45:15.843Z,9.10
2018-05-26T09:46:15.844Z,9.60
2018-05-26T09:47:15.843Z,8.90
2018-05-26T09:48:15.850Z,8.60
2018-05-26T09:49:15.850Z,9.10
2018-05-26T09:50:15.850Z,8.90
2018-05-26T09:51:15.849Z,7.80
2018-05-26T09:52:15.846Z,8.70
2018-05-26T09:53:15.846Z,10.30
2018-05-26T09:54:15.853Z,10.30
2018-05-26T09:55:15.849Z,9.10
2018-05-26T09:56:15.854Z,8.90
2018-05-26T09:57:15.846Z,9.20
2018-05-26T09:58:16.298Z,9.00
2018-05-26T09:59:15.852Z,9.00
2018-05-26T10:00:15.846Z,8.20
2018-05-26T10:01:15.853Z,8.00
2018-05-26T10:02:15.849Z,7.70
2018-05-26T10:03:15.852Z,8.30
2018-05-26T10:04:15.876Z,9.50
2018-05-26T10:05:15.849Z,9.00
2018-05-26T10:06:15.846Z,10.20
2018-05-26T10:07:15.844Z,9.10
2018-05-26T10:08:15.897Z,8.60
2018-05-26T10:09:15.872Z,9.10
2018-05-26T10:10:15.898Z,8.10
2018-05-26T10:11:15.850Z,8.40
2018-05-26T10:12:15.851Z,8.00
2018-05-26T10:13:15.840Z,7.80
2018-05-26T10:14:15.840Z,8.10
2018-05-26T10:15:15.839Z,7.40
2018-05-26T10:16:15.837Z,7.50
2018-05-26T10:17:15.840Z,7.80
2018-05-26T10:18:15.838Z,9.70
2018-05-26T10:20:15.832Z,7.10
2018-05-26T10:21:15.843Z,7.60
2018-05-26T10:22:15.848Z,7.80
2018-05-26T10:23:15.837Z,7.60
2018-05-26T10:24:15.829Z,7.50
2018-05-26T10:25:15.828Z,7.60
2018-05-26T10:26:15.877Z,8.60
2018-05-26T10:27:15.818Z,8.00
2018-05-26T10:28:15.819Z,8.20
2018-05-26T10:29:15.825Z,7.40
2018-05-26T10:30:15.820Z,6.50
2018-05-26T10:31:15.898Z,6.60
2018-05-26T10:32:15.845Z,6.30
2018-05-26T10:33:15.844Z,6.50
2018-05-26T10:34:15.807Z,6.70
2018-05-26T10:35:15.860Z,7.70
2018-05-26T10:36:15.814Z,6.90
2018-05-26T10:37:15.833Z,7.50
2018-05-26T10:38:15.801Z,7.30
2018-05-26T10:39:15.901Z,7.00
2018-05-26T10:40:15.789Z,6.70
2018-05-26T10:41:15.796Z,6.60
2018-05-26T10:42:15.782Z,6.00
2018-05-26T10:43:15.793Z,7.00
2018-05-26T10:44:15.783Z,7.10
2018-05-26T10:45:15.788Z,7.20
2018-05-26T10:46:15.769Z,6.80
2018-05-26T10:47:15.793Z,7.20
2018-05-26T10:48:15.766Z,7.00
2018-05-26T10:49:15.770Z,7.10
2018-05-26T10:50:15.760Z,7.10
2018-05-26T10:51:15.767Z,6.50
2018-05-26T10:52:15.753Z,7.90
2018-05-26T10:53:15.750Z,6.70
2018-05-26T10:54:15.761Z,6.40
2018-05-26T10:55:15.745Z,6.20
2018-05-26T10:56:15.746Z,6.70
2018-05-26T10:57:15.743Z,6.90
2018-05-26T10:58:15.741Z,7.40
2018-05-26T10:59:15.741Z,6.50
2018-05-26T11:00:15.782Z,6.70
2018-05-26T11:01:15.727Z,6.70
2018-05-26T11:02:15.806Z,7.00
2018-05-26T11:03:15.711Z,6.10
2018-05-26T11:04:15.773Z,6.60
2018-05-26T11:05:15.711Z,6.90
2018-05-26T11:06:15.728Z,6.40
2018-05-26T11:07:15.707Z,6.40
2018-05-26T11:08:15.701Z,5.90
2018-05-26T11:09:15.693Z,5.70
2018-05-26T11:10:15.742Z,6.10
2018-05-26T11:11:15.685Z,5.90
2018-05-26T11:12:15.682Z,8.50
2018-05-26T11:13:15.689Z,6.30
2018-05-26T11:14:15.671Z,5.70
2018-05-26T11:15:15.672Z,6.90
2018-05-26T11:16:15.850Z,6.50
2018-05-26T11:17:15.665Z,9.80
2018-05-26T11:18:15.672Z,6.00
2018-05-26T11:19:15.659Z,6.70
2018-05-26T11:20:15.709Z,8.20
2018-05-26T11:21:15.650Z,6.40
2018-05-26T11:22:15.651Z,7.30
2018-05-26T11:23:15.663Z,7.30
2018-05-26T11:24:15.740Z,6.20
2018-05-26T11:25:15.644Z,6.30
2018-05-26T11:26:15.684Z,6.40
2018-05-26T11:27:15.627Z,6.40
2018-05-26T11:28:15.643Z,6.10
2018-05-26T11:29:15.627Z,6.30
2018-05-26T11:30:15.621Z,8.50
2018-05-26T11:31:15.621Z,6.50
2018-05-26T11:32:15.626Z,6.40
2018-05-26T11:33:15.689Z,6.40
2018-05-26T11:34:15.612Z,5.90
2018-05-26T11:35:15.660Z,5.60
2018-05-26T11:36:15.602Z,6.00
2018-05-26T11:37:15.602Z,5.70
2018-05-26T11:38:15.598Z,5.90
2018-05-26T11:39:15.604Z,6.20
2018-05-26T11:40:15.590Z,6.00
2018-05-26T11:41:15.586Z,6.30
2018-05-26T11:42:15.580Z,6.30
2018-05-26T11:43:15.583Z,7.40
2018-05-26T11:44:15.577Z,6.70
2018-05-26T11:45:15.589Z,6.20
2018-05-26T11:46:15.569Z,6.20
2018-05-26T11:47:15.566Z,6.10
2018-05-26T11:48:15.557Z,6.10
2018-05-26T11:49:15.559Z,6.50
2018-05-26T11:50:15.557Z,6.10
2018-05-26T11:51:15.548Z,6.70
2018-05-26T11:52:15.547Z,6.50
2018-05-26T11:53:15.555Z,6.70
2018-05-26T11:54:15.548Z,6.50
2018-05-26T11:55:15.542Z,6.40
2018-05-26T11:56:15.546Z,6.20
2018-05-26T11:57:15.547Z,6.70
2018-05-26T11:58:15.538Z,6.40
2018-05-26T11:59:15.528Z,6.80
2018-05-26T12:00:15.607Z,6.40
2018-05-26T12:01:15.530Z,6.30
2018-05-26T12:02:15.573Z,6.90
2018-05-26T12:03:15.518Z,6.40
2018-05-26T12:04:15.561Z,8.10
2018-05-26T12:05:15.509Z,6.40
2018-05-26T12:06:15.509Z,6.60
2018-05-26T12:07:15.509Z,7.10
2018-05-26T12:08:15.509Z,6.40
2018-05-26T12:09:15.501Z,6.20
2018-05-26T12:10:15.502Z,6.30
2018-05-26T12:11:15.499Z,6.00
2018-05-26T12:12:15.501Z,6.30
2018-05-26T12:13:15.492Z,6.20
2018-05-26T12:14:15.495Z,6.20
2018-05-26T12:15:15.489Z,6.60
2018-05-26T12:16:15.486Z,6.60
2018-05-26T12:17:15.484Z,6.40
2018-05-26T12:18:15.482Z,6.80
2018-05-26T12:19:15.476Z,6.60
2018-05-26T12:20:15.473Z,6.70
2018-05-26T12:21:15.472Z,6.10
2018-05-26T12:22:15.470Z,6.80
2018-05-26T12:23:15.469Z,6.60
2018-05-26T12:24:15.467Z,6.00
2018-05-26T12:25:15.460Z,7.10
2018-05-26T12:26:15.457Z,6.80
2018-05-26T12:27:15.450Z,8.60
2018-05-26T12:28:15.451Z,6.30
2018-05-26T12:29:15.447Z,6.40
2018-05-26T12:30:15.451Z,6.80
2018-05-26T12:31:15.447Z,6.80
2018-05-26T12:32:15.437Z,7.40
2018-05-26T12:33:15.439Z,6.70
2018-05-26T12:34:15.438Z,6.70
2018-05-26T12:35:15.428Z,7.40
2018-05-26T12:36:15.429Z,6.90
2018-05-26T12:37:15.431Z,7.00
2018-05-26T12:39:15.421Z,8.00
2018-05-26T12:40:15.421Z,7.20
2018-05-26T12:41:15.416Z,7.70
2018-05-26T12:42:15.422Z,7.50
2018-05-26T12:43:15.410Z,7.60
2018-05-26T12:44:15.408Z,8.00
2018-05-26T12:45:15.464Z,7.50
2018-05-26T12:46:15.403Z,7.60
2018-05-26T12:47:15.403Z,7.90
2018-05-26T12:48:15.393Z,7.90
2018-05-26T12:49:15.389Z,7.20
2018-05-26T12:50:15.390Z,7.50
2018-05-26T12:51:15.393Z,10.10
2018-05-26T12:52:15.425Z,10.10
2018-05-26T12:53:15.389Z,8.10
2018-05-26T12:54:15.376Z,8.20
2018-05-26T12:55:15.376Z,10.10
2018-05-26T12:56:15.384Z,8.60
2018-05-26T12:57:15.384Z,7.10
2018-05-26T12:58:15.367Z,8.80
2018-05-26T12:59:15.371Z,7.50
2018-05-26T13:00:15.363Z,7.40
2018-05-26T13:01:15.363Z,7.20
2018-05-26T13:02:15.371Z,7.40
2018-05-26T13:03:15.362Z,7.30
2018-05-26T13:04:15.358Z,7.40
2018-05-26T13:05:15.357Z,7.90
2018-05-26T13:06:15.412Z,7.40
2018-05-26T13:07:15.351Z,7.60
2018-05-26T13:08:15.345Z,6.60
2018-05-26T13:09:15.343Z,7.10
2018-05-26T13:10:15.351Z,6.80
2018-05-26T13:11:15.336Z,6.80
2018-05-26T13:12:15.351Z,6.70
2018-05-26T13:13:15.337Z,7.00
2018-05-26T13:14:15.344Z,6.90
2018-05-26T13:15:15.334Z,6.80